Terminal Aerodrome Forecast
Issued by NWS Tampa Bay Area, FL

Home | Current Version | Previous Version | Text Only | Print | Product List | Glossary On
Versions: 1 2 3 4 5 6 7 8 9 10 11 12 13 14 15 16
000
FTUS42 KTBW 292125 AAA
TAFSRQ
TAF AMD
KSRQ 292125Z 2921/3018 26009KT P6SM VCTS SCT025CB BKN130
      TEMPO 2921/2924 VRB15G25KT 2SM +TSRA BKN025CB
     FM300000 21006KT P6SM VCSH SCT030 BKN200
     FM300400 19004KT P6SM SCT025 SCT250
     FM300600 20004KT P6SM VCSH SCT025 SCT250
     FM301400 21006KT P6SM VCTS SCT025CB BKN250=

USA.gov is the U.S. government's official web portal to all federal, state and local government web resources and services.